Latest Weather Observations for Pallamana

IDS60901

Issued at 8:51 am CDT Sunday 5 February 2023 (issued every 10 minutes, with the page automatically refreshed every 10 minutes)

About weather observations | Map of Adelaide area stations | Latest observations for Adelaide area | Other Formats
Station Details ID: 024584 Name: PALLAMANA AERODROME Lat: -35.06 Lon: 139.23 Height: 45.0 m
Data from the previous 72 hours. | See also: Recent months at Pallamana
Date/Time
CDT
Temp
°C
App
Temp
°C
Dew
Point
°C
Rel
Hum
%
Delta-T
°C
Wind Press
QNH
hPa
Press
MSL
hPa
Rain since
9am
mm
Dir  Spd
km/h
Gust
km/h
Spd
kts
Gust
kts
05/08:30am 16.2 15.2 12.2 77 2.2 N 9 11 5 6 1019.8 1019.6 0.0
05/08:00am 15.7 14.6 11.9 78 2.1 NNE 9 11 5 6 1019.5 1019.3 0.0
05/07:30am 15.1 15.0 12.2 83 1.6 NE 4 7 2 4 1019.1 1018.9 0.0
05/07:00am 15.1 15.6 11.7 80 1.8 CALM 0 0 0 0 1018.7 1018.5 0.0
05/06:30am 14.9 15.5 12.0 83 1.6 CALM 0 0 0 0 1018.3 1018.1 0.0
05/06:00am 14.9 15.4 11.7 81 1.7 CALM 0 0 0 0 1017.9 1017.7 0.0
05/05:30am 14.8 14.4 11.2 79 1.9 WSW 4 7 2 4 1017.6 1017.4 0.0
05/05:00am 14.9 13.9 10.9 77 2.1 WSW 7 9 4 5 1017.2 1017.0 0.0
05/04:30am 15.2 13.0 10.8 75 2.3 SSW 13 20 7 11 1017.0 1016.8 0.0
05/04:00am 14.4 13.4 11.0 80 1.8 SSW 7 11 4 6 1016.8 1016.6 0.0
05/03:30am 15.0 14.1 11.2 78 2.0 WSW 7 9 4 5 1016.7 1016.5 0.0
05/03:00am 15.6 14.4 11.6 77 2.2 SSW 9 15 5 8 1016.7 1016.5 0.0
05/02:30am 16.0 15.5 12.6 80 1.9 SSW 7 11 4 6 1016.9 1016.7 0.0
05/02:00am 16.0 15.0 12.4 79 2.0 SSW 9 9 5 5 1016.8 1016.6 0.0
05/01:30am 16.1 15.5 12.3 78 2.1 SW 7 9 4 5 1017.1 1016.9 0.0
05/01:00am 16.1 15.6 12.7 80 1.9 SSW 7 9 4 5 1017.2 1017.0 0.0
05/12:30am 15.9 15.1 13.0 83 1.6 SW 9 11 5 6 1017.3 1017.1 0.0
05/12:00am 16.0 15.0 13.5 85 1.4 SW 11 15 6 8 1017.3 1017.1 0.0
 
Date/Time
CDT
Temp
°C
App
Temp
°C
Dew
Point
°C
Rel
Hum
%
Delta-T
°C
Wind Press
QNH
hPa
Press
MSL
hPa
Rain since
9am
mm
Dir  Spd
km/h
Gust
km/h
Spd
kts
Gust
kts
04/11:30pm 15.6 14.6 13.4 87 1.2 WSW 11 15 6 8 1017.2 1017.0 0.0
04/11:00pm 14.8 13.3 13.0 89 1.0 WSW 13 17 7 9 1017.4 1017.2 0.0
04/10:30pm 14.1 12.4 12.5 90 0.9 WSW 13 15 7 8 1017.4 1017.2 0.0
04/10:00pm 14.3 13.0 12.5 89 1.0 SW 11 13 6 7 1017.3 1017.1 0.0
04/09:30pm 15.3 13.0 13.0 86 1.3 SW 17 20 9 11 1017.0 1016.8 0.0
04/09:00pm 15.3 13.3 12.6 84 1.5 SSW 15 20 8 11 1016.6 1016.4 0.0
04/08:30pm 16.3 14.6 12.3 77 2.2 SSW 13 20 7 11 1016.2 1016.0 0.0
04/08:00pm 17.2 13.9 11.5 69 3.1 S 20 30 11 16 1016.1 1015.9 0.0
04/07:30pm 18.0 14.0 11.8 67 3.4 S 24 35 13 19 1015.7 1015.5 0.0
04/07:00pm 18.5 14.0 12.5 68 3.4 S 28 39 15 21 1015.4 1015.2 0.0
04/06:30pm 19.7 15.1 12.2 62 4.2 SSW 28 37 15 20 1014.9 1014.7 0.0
04/06:00pm 19.7 13.8 11.2 58 4.7 SSW 33 43 18 23 1014.5 1014.3 0.0
04/05:30pm 20.5 15.6 11.4 56 5.0 SSW 28 39 15 21 1014.4 1014.2 0.0
04/05:00pm 20.5 16.0 12.5 60 4.5 SSW 28 39 15 21 1014.4 1014.2 0.0
04/04:30pm 21.4 16.1 11.4 53 5.6 S 30 39 16 21 1014.1 1013.9 0.0
04/04:00pm 22.0 17.1 12.5 54 5.4 SSW 30 44 16 24 1014.0 1013.8 0.0
04/03:30pm 22.4 17.8 12.4 53 5.7 SSW 28 41 15 22 1014.0 1013.8 0.0
04/03:00pm 21.1 17.3 12.5 58 4.9 SSW 24 35 13 19 1014.2 1014.0 0.0
04/02:30pm 20.8 17.8 12.0 57 4.9 S 19 28 10 15 1014.4 1014.2 0.0
04/02:00pm 22.0 18.2 11.1 50 6.0 SW 22 30 12 16 1014.5 1014.3 0.0
04/01:30pm 21.1 17.1 11.7 55 5.2 SW 24 41 13 22 1014.6 1014.4 0.0
04/01:00pm 20.7 17.5 11.1 54 5.3 SW 19 32 10 17 1014.7 1014.5 0.0
04/12:30pm 20.0 15.7 12.0 60 4.5 SW 26 33 14 18 1014.8 1014.6 0.0
04/12:00pm 19.9 16.3 11.7 59 4.5 SW 22 35 12 19 1014.8 1014.6 0.0
04/11:30am 19.2 15.4 11.0 59 4.5 SW 22 32 12 17 1014.8 1014.6 0.0
04/11:00am 19.5 15.8 10.0 54 5.1 SW 20 30 11 16 1014.8 1014.6 0.0
04/10:30am 18.4 13.6 11.5 64 3.8 WSW 28 41 15 22 1014.8 1014.6 0.0
04/10:00am 16.7 12.5 12.5 76 2.3 WSW 26 37 14 20 1014.6 1014.4 0.0
04/09:47am 15.8 13.3 14.2 90 0.9 WSW 20 30 11 16 1014.7 1014.5 0.0
04/09:30am 14.8 11.1 13.8 94 0.6 SW 26 35 14 19 1014.7 1014.5 0.0
04/09:25am 15.0 11.4 13.0 88 1.1 SW 24 35 13 19 1014.7 1014.5 0.0
04/09:00am 15.3 11.8 12.2 82 1.7 WSW 22 30 12 16 1014.3 1014.1 0.8
04/08:30am 14.8 11.1 12.7 87 1.2 WSW 24 30 13 16 1013.7 1013.5 0.8
04/08:00am 14.2 11.7 12.2 88 1.1 WSW 17 22 9 12 1013.2 1013.0 0.8
04/07:30am 13.9 12.0 11.9 88 1.1 W 13 15 7 8 1012.5 1012.3 0.8
04/07:00am 13.3 11.0 11.7 90 0.9 W 15 19 8 10 1012.0 1011.8 0.8
04/06:51am 13.3 11.0 11.7 90 0.9 W 15 20 8 11 1011.9 1011.7 0.8
04/06:36am 13.6 10.3 11.5 87 1.1 W 20 32 11 17 1011.7 1011.5 0.8
04/06:30am 13.8 10.9 11.0 83 1.5 W 17 24 9 13 1011.6 1011.4 0.8
04/06:00am 13.6 11.5 11.0 84 1.4 W 13 20 7 11 1011.0 1010.9 0.8
04/05:30am 13.4 10.1 10.8 84 1.4 W 19 22 10 12 1010.5 1010.4 0.8
04/05:00am 12.2 9.1 9.0 81 1.6 W 15 19 8 10 1010.2 1010.1 0.8
04/04:30am 12.5 9.4 8.8 78 1.9 W 15 20 8 11 1009.9 1009.8 0.8
04/04:00am 13.5 10.1 9.0 74 2.3 W 17 20 9 11 1009.7 1009.6 0.8
04/03:30am 13.4 10.7 9.1 75 2.2 W 13 17 7 9 1009.6 1009.5 0.8
04/03:00am 13.2 10.5 9.1 76 2.1 W 13 20 7 11 1009.5 1009.4 0.8
04/02:30am 12.5 9.3 8.6 77 1.9 W 15 17 8 9 1009.4 1009.3 0.8
04/02:00am 11.6 8.4 8.3 80 1.6 W 15 19 8 10 1009.4 1009.3 0.8
04/01:30am 12.2 9.1 8.7 79 1.7 W 15 19 8 10 1009.5 1009.4 0.8
04/01:00am 12.5 9.4 9.0 79 1.8 W 15 19 8 10 1009.5 1009.4 0.8
04/12:30am 12.7 9.2 8.8 77 2.0 W 17 20 9 11 1009.5 1009.4 0.8
04/12:00am 13.7 9.4 9.2 74 2.3 SW 22 32 12 17 1009.4 1009.3 0.8
 
Date/Time
CDT
Temp
°C
App
Temp
°C
Dew
Point
°C
Rel
Hum
%
Delta-T
°C
Wind Press
QNH
hPa
Press
MSL
hPa
Rain since
9am
mm
Dir  Spd
km/h
Gust
km/h
Spd
kts
Gust
kts
03/11:30pm 13.4 9.5 8.5 72 2.5 SW 19 26 10 14 1009.4 1009.3 0.8
03/11:00pm 13.1 9.8 8.0 71 2.5 W 15 19 8 10 1009.5 1009.4 0.8
03/10:30pm 12.7 9.7 7.8 72 2.4 W 13 17 7 9 1009.6 1009.5 0.8
03/10:00pm 13.0 9.7 7.9 71 2.5 WSW 15 17 8 9 1009.3 1009.2 0.8
03/09:30pm 13.6 10.0 8.2 70 2.7 WSW 17 26 9 14 1009.0 1008.9 0.8
03/09:00pm 14.4 9.8 8.1 66 3.2 SW 22 26 12 14 1008.6 1008.5 0.8
03/08:30pm 15.1 9.1 8.6 65 3.3 SW 30 41 16 22 1008.1 1008.0 0.8
03/08:00pm 15.8 8.4 6.8 55 4.4 SW 35 46 19 25 1007.6 1007.5 0.8
03/07:30pm 16.8 9.6 5.7 48 5.4 SW 33 46 18 25 1007.2 1007.1 0.8
03/07:23pm 16.7 9.8 7.1 53 4.8 SW 33 52 18 28 1007.2 1007.1 0.8
03/07:00pm 17.5 9.1 7.3 51 5.1 SW 41 54 22 29 1006.6 1006.5 0.8
03/06:30pm 17.9 9.2 6.1 46 5.8 SSW 41 59 22 32 1005.7 1005.6 0.8
03/06:29pm 18.0 9.5 6.8 48 5.6 SSW 41 59 22 32 1005.6 1005.5 0.8
03/06:00pm 17.9 8.7 7.9 52 5.1 SW 46 63 25 34 1005.3 1005.2 0.8
03/05:49pm 18.3 9.7 8.3 52 5.2 SSW 43 61 23 33 1005.0 1004.9 0.8
03/05:30pm 18.7 9.4 5.9 43 6.3 SW 44 57 24 31 1004.7 1004.6 0.8
03/05:07pm 19.6 11.4 6.4 42 6.6 SW 39 57 21 31 1004.3 1004.1 0.8
03/05:00pm 19.9 11.4 5.2 38 7.2 SW 39 50 21 27 1004.4 1004.2 0.8
03/04:30pm 20.4 11.6 5.6 38 7.4 SW 41 56 22 30 1004.1 1003.9 0.8
03/04:00pm 19.9 10.3 3.2 33 7.9 SW 43 61 23 33 1003.8 1003.6 0.8
03/03:58pm 19.7 10.0 2.6 32 8.0 SW 43 61 23 33 1003.7 1003.5 0.8
03/03:30pm 20.0 10.5 4.9 37 7.4 SW 44 56 24 30 1003.4 1003.2 0.8
03/03:00pm 19.0 11.4 8.9 52 5.3 SW 39 59 21 32 1003.5 1003.3 0.8
03/02:36pm 16.8 8.4 9.0 60 4.0 SW 43 61 23 33 1003.4 1003.2 0.8
03/02:30pm 17.9 9.9 9.0 56 4.7 SW 41 54 22 29 1003.3 1003.1 0.8
03/02:07pm 16.3 8.2 9.9 66 3.4 WSW 43 61 23 33 1003.4 1003.2 0.8
03/02:00pm 14.4 5.3 8.4 67 3.0 SW 46 61 25 33 1003.5 1003.3 0.8
03/01:49pm 15.8 9.1 11.0 73 2.6 SW 37 65 20 35 1003.1 1002.9 0.8
03/01:30pm 14.8 7.3 11.0 78 2.0 SW 41 52 22 28 1003.4 1003.2 0.6
03/01:00pm 16.5 9.1 9.7 64 3.6 SW 39 54 21 29 1003.2 1003.0 0.4
03/12:30pm 16.4 8.9 10.7 69 3.1 SW 41 50 22 27 1003.1 1002.9 0.4
03/12:00pm 14.1 6.4 11.6 85 1.3 SW 43 54 23 29 1003.2 1003.0 0.4
03/11:41am 13.6 6.2 11.1 85 1.3 SW 41 61 22 33 1003.0 1002.8 0.4
03/11:37am 14.1 7.6 11.8 86 1.2 SW 37 61 20 33 1002.9 1002.7 0.4
03/11:30am 12.9 5.9 11.1 89 1.0 SW 39 52 21 28 1003.0 1002.8 0.4
03/11:27am 12.5 5.8 10.9 90 0.8 SSW 37 50 20 27 1003.1 1002.9 0.4
03/11:11am 14.3 7.0 10.3 77 2.1 SW 39 54 21 29 1002.6 1002.4 0.0
03/11:00am 17.9 8.4 6.7 48 5.6 SW 46 56 25 30 1002.0 1001.8 0.0
03/10:38am 17.2 8.3 7.0 51 5.1 WSW 43 65 23 35 1002.0 1001.8 0.0
03/10:30am 17.0 9.1 7.9 55 4.6 WSW 39 56 21 30 1002.3 1002.1 0.0
03/10:05am 16.1 7.3 7.1 55 4.5 WSW 43 65 23 35 1002.2 1002.0 0.0
03/10:00am 17.0 8.2 7.4 53 4.8 WSW 43 54 23 29 1002.4 1002.2 0.0
03/09:43am 16.3 8.0 7.8 57 4.3 WSW 41 59 22 32 1002.3 1002.1 0.0
03/09:30am 15.3 6.5 7.1 58 4.1 WSW 43 56 23 30 1002.2 1002.0 0.0
03/09:08am 16.0 8.1 6.2 52 4.8 WSW 37 56 20 30 1001.9 1001.7 0.0
03/09:00am 15.4 8.4 6.7 56 4.3 WSW 33 48 18 26 1001.9 1001.7 0.6
03/08:30am 14.9 7.8 6.5 57 4.1 WSW 33 46 18 25 1001.9 1001.7 0.6
03/08:00am 14.0 6.3 7.1 63 3.4 WSW 37 50 20 27 1001.6 1001.4 0.6
03/07:30am 13.2 5.4 6.5 64 3.2 WSW 37 46 20 25 1001.2 1001.0 0.6
03/07:17am 13.1 6.1 6.9 66 3.0 WSW 33 54 18 29 1001.2 1001.0 0.6
03/07:00am 13.0 7.0 7.2 68 2.8 W 28 41 15 22 1001.1 1000.9 0.6
03/06:30am 12.8 7.9 7.0 68 2.8 WSW 22 32 12 17 1000.7 1000.5 0.6
03/06:00am 12.9 7.9 6.5 65 3.1 WSW 22 32 12 17 1000.7 1000.5 0.6
03/05:30am 12.9 6.6 5.8 62 3.4 WSW 28 37 15 20 1000.2 1000.0 0.6
03/05:00am 12.4 5.8 7.7 73 2.3 SW 32 43 17 23 1000.0 999.8 0.6
03/04:48am 12.9 6.3 7.8 71 2.5 WSW 32 48 17 26 999.9 999.7 0.6
03/04:30am 12.4 7.6 7.5 72 2.4 WSW 22 30 12 16 999.8 999.6 0.6
03/04:00am 12.8 6.9 7.5 70 2.6 WSW 28 43 15 23 999.9 999.7 0.6
03/03:30am 12.3 8.0 8.0 75 2.1 WSW 20 28 11 15 999.9 999.7 0.6
03/03:00am 13.1 7.4 8.2 72 2.4 WSW 28 35 15 19 1000.0 999.8 0.6
03/02:30am 12.9 7.8 7.6 70 2.6 W 24 33 13 18 1000.2 1000.0 0.6
03/02:00am 13.4 8.0 8.0 70 2.7 WSW 26 39 14 21 1000.6 1000.4 0.6
03/01:30am 13.1 8.6 8.4 73 2.4 WSW 22 32 12 17 1000.8 1000.6 0.6
03/01:00am 13.3 8.4 8.6 73 2.4 WSW 24 33 13 18 1001.0 1000.8 0.6
03/12:30am 13.3 8.9 9.0 75 2.2 W 22 28 12 15 1001.2 1001.0 0.6
03/12:00am 13.6 8.3 8.4 71 2.6 WSW 26 35 14 19 1001.2 1001.0 0.6
 
Date/Time
CDT
Temp
°C
App
Temp
°C
Dew
Point
°C
Rel
Hum
%
Delta-T
°C
Wind Press
QNH
hPa
Press
MSL
hPa
Rain since
9am
mm
Dir  Spd
km/h
Gust
km/h
Spd
kts
Gust
kts
02/11:30pm 13.9 9.0 8.5 70 2.7 WSW 24 35 13 19 1001.3 1001.1 0.6
02/11:00pm 14.1 8.9 8.9 71 2.6 W 26 33 14 18 1001.4 1001.2 0.6
02/10:30pm 14.4 8.6 7.9 65 3.3 WSW 28 43 15 23 1001.4 1001.2 0.6
02/10:25pm 14.6 8.4 7.9 64 3.3 WSW 30 43 16 23 1001.5 1001.3 0.6
02/10:00pm 14.6 10.6 8.3 66 3.2 WSW 19 24 10 13 1001.5 1001.3 0.6
02/09:30pm 14.1 10.4 8.1 67 3.0 WSW 17 19 9 10 1001.3 1001.1 0.6
02/09:00pm 14.5 10.1 7.5 63 3.5 WSW 20 32 11 17 1001.2 1001.0 0.6
02/08:30pm 15.3 8.9 6.8 57 4.2 WSW 30 44 16 24 1000.8 1000.6 0.6
02/08:14pm 15.9 9.4 6.3 53 4.7 WSW 30 50 16 27 1000.5 1000.3 0.6
02/08:00pm 16.3 9.6 7.5 56 4.4 SW 32 43 17 23 1000.4 1000.2 0.6
02/07:30pm 16.2 9.1 8.2 59 4.1 SW 35 44 19 24 1000.3 1000.1 0.6
02/07:00pm 16.9 10.1 7.8 55 4.6 SW 33 43 18 23 1000.0 999.8 0.6
02/06:30pm 17.4 10.2 9.1 58 4.3 SW 37 54 20 29 999.8 999.6 0.6
02/06:00pm 18.0 9.1 7.7 51 5.3 SW 44 59 24 32 999.5 999.3 0.6
02/05:46pm 17.7 9.1 8.3 54 4.8 SW 43 61 23 33 999.3 999.1 0.6
02/05:30pm 17.5 9.4 10.1 62 4.0 SW 43 57 23 31 999.2 999.0 0.6
02/05:00pm 19.0 12.2 10.8 59 4.4 SW 37 50 20 27 999.0 998.8 0.6
02/04:47pm 20.3 13.1 10.7 54 5.2 SW 39 57 21 31 999.2 999.0 0.6
02/04:37pm 20.4 12.3 8.7 47 6.2 WSW 41 61 22 33 999.0 998.8 0.6
02/04:30pm 20.1 13.2 10.2 53 5.4 WSW 37 54 20 29 999.0 998.8 0.6
02/04:03pm 17.8 11.8 12.0 69 3.2 WSW 35 54 19 29 999.5 999.3 0.6
02/04:00pm 17.6 10.8 11.9 69 3.1 WSW 39 54 21 29 999.5 999.3 0.6
02/03:30pm 17.7 10.7 12.6 72 2.9 WSW 41 61 22 33 999.4 999.2 0.6
02/03:09pm 17.3 11.8 14.8 85 1.4 WSW 37 56 20 30 999.4 999.2 0.6
02/03:04pm 16.7 12.2 14.9 89 1.0 WSW 32 50 17 27 999.5 999.3 0.6
02/03:00pm 16.5 12.0 15.4 93 0.6 SW 33 46 18 25 999.6 999.4 0.6
02/02:30pm 16.7 9.6 14.9 89 1.0 WSW 46 65 25 35 999.4 999.2 0.2
02/02:24pm 17.1 10.4 15.1 88 1.2 WSW 44 63 24 34 999.4 999.2 0.0
02/02:22pm 16.9 9.2 14.4 85 1.4 WSW 48 63 26 34 999.3 999.1 0.0
02/02:19pm 17.6 10.3 15.4 87 1.3 WSW 48 63 26 34 999.3 999.1 0.0
02/02:01pm 18.4 11.2 14.7 79 2.1 W 46 70 25 38 999.2 999.0 0.0
02/02:00pm 18.7 11.4 14.4 76 2.5 W 46 70 25 38 999.1 998.9 0.0
02/01:35pm 20.6 13.1 12.8 61 4.4 W 44 65 24 35 999.1 998.9 0.0
02/01:30pm 21.0 13.4 12.4 58 4.9 W 44 59 24 32 999.0 998.8 0.0
02/01:03pm 21.6 14.9 11.0 51 5.9 W 37 63 20 34 999.2 999.0 0.0
02/01:00pm 21.2 14.5 11.0 52 5.6 WNW 37 54 20 29 999.4 999.2 0.0
02/12:35pm 21.0 14.1 11.6 55 5.2 WNW 39 63 21 34 999.7 999.5 0.0
02/12:30pm 20.7 14.5 11.3 55 5.2 WNW 35 46 19 25 999.8 999.6 0.0
02/12:04pm 19.8 13.5 11.0 57 4.8 WNW 35 57 19 31 1000.5 1000.3 0.0
02/12:00pm 19.8 13.6 11.3 58 4.7 WNW 35 50 19 27 1000.6 1000.4 0.0
02/11:33am 19.2 13.3 11.3 60 4.3 W 33 54 18 29 1001.5 1001.3 0.0
02/11:30am 19.0 13.2 11.6 62 4.1 W 33 46 18 25 1001.6 1001.4 0.0
02/11:04am 17.9 12.5 11.0 64 3.7 W 30 48 16 26 1002.2 1002.0 0.0
02/11:00am 17.9 12.5 11.0 64 3.7 W 30 43 16 23 1002.3 1002.1 0.0
02/10:30am 18.7 12.0 9.8 56 4.8 W 35 52 19 28 1002.1 1001.9 0.0
02/10:00am 17.4 11.3 9.8 61 4.0 W 32 50 17 27 1002.6 1002.4 0.0
02/09:37am 17.5 12.2 9.7 60 4.1 W 28 46 15 25 1002.9 1002.7 0.0
02/09:30am 17.2 11.3 10.3 64 3.7 W 32 44 17 24 1002.9 1002.7 0.0
02/09:10am 16.9 10.7 9.3 61 4.0 W 32 50 17 27 1002.8 1002.6 0.0
02/09:00am 17.0 11.4 8.9 59 4.2 W 28 44 15 24 1003.0 1002.8 -
02/08:59am 17.1 11.5 8.8 58 4.3 W 28 44 15 24 1003.0 1002.8 -

Latest Capital City Observations: Canberra | Sydney | Melbourne | Brisbane | Adelaide | Perth | Hobart | Darwin

Other formats

Comma delimited format used in spreadsheet applications
http://www.bom.gov.au/fwo/IDS60901/IDS60901.95818.axf

JavaScript Object Notation format (JSON) in row-major order
http://www.bom.gov.au/fwo/IDS60901/IDS60901.95818.json

Data quality

Most of these data are generated automatically and are frequently updated. Quality checks on data are not normally performed. It is possible for incorrect values to appear. Refer to information at About Latest Weather Observations and please check the disclaimer before using these data.